Time;durP1;ratioP1;P1;durP2;ratioP2;P2;SDS_P1;SDS_P2;PMS_P1;PMS_P2;Temp;Humidity;BMP_temperature;BMP_pressure;BME280_temperature;BME280_humidity;BME280_pressure;Samples;Min_cycle;Max_cycle;Signal;HPM_P1;HPM_P2
2023/10/05 00:01:56;;;;;;;4.30;1.30;;;;;;;16.85;81.35;101152.13;5015104;28;20037;-66
2023/10/05 00:04:24;;;;;;;2.75;1.20;;;;;;;16.91;81.13;101143.19;5026833;28;20049;-66
2023/10/05 00:06:53;;;;;;;3.50;0.80;;;;;;;16.85;81.32;101138.50;5029741;28;20406;-66
2023/10/05 00:09:20;;;;;;;5.28;0.80;;;;;;;16.78;81.79;101138.50;5028037;28;20700;-67
2023/10/05 00:11:46;;;;;;;4.57;1.33;;;;;;;16.80;81.74;101139.66;5030347;28;20025;-67
2023/10/05 00:14:12;;;;;;;3.92;1.35;;;;;;;16.86;81.41;101148.25;5031585;28;20052;-66
2023/10/05 00:16:39;;;;;;;3.42;0.93;;;;;;;16.84;81.45;101137.72;5030721;28;20026;-66
2023/10/05 00:19:12;;;;;;;5.15;1.23;;;;;;;16.75;81.61;101136.53;5026106;28;20120;-66
2023/10/05 00:21:56;;;;;;;3.85;0.73;;;;;;;16.80;81.91;101142.38;5034154;28;20064;-66
2023/10/05 00:24:42;;;;;;;4.05;1.02;;;;;;;16.73;82.18;101136.94;5025595;28;20447;-66
2023/10/05 00:27:13;;;;;;;4.70;1.58;;;;;;;16.83;81.98;101129.94;5027767;28;20087;-67
2023/10/05 00:29:48;;;;;;;2.63;0.90;;;;;;;16.88;81.79;101124.13;5031362;28;20041;-65
2023/10/05 00:32:18;;;;;;;3.05;1.23;;;;;;;16.92;81.47;101122.19;5024660;28;20413;-66
2023/10/05 00:34:47;;;;;;;1.75;0.73;;;;;;;16.93;81.53;101123.75;5028635;28;20087;-65
2023/10/05 00:37:13;;;;;;;1.08;0.85;;;;;;;16.93;81.49;101121.03;5028124;28;20034;-66
2023/10/05 00:39:46;;;;;;;9.18;1.20;;;;;;;16.91;81.72;101124.16;5028760;28;20464;-66
2023/10/05 00:42:12;;;;;;;1.60;0.90;;;;;;;16.85;81.72;101125.69;5025914;28;20116;-66
2023/10/05 00:44:40;;;;;;;2.55;0.93;;;;;;;16.90;81.63;101119.88;5013210;28;20124;-67
2023/10/05 00:47:06;;;;;;;2.50;0.98;;;;;;;16.88;81.74;101116.75;5027297;28;20116;-67
2023/10/05 00:49:59;;;;;;;4.35;0.95;;;;;;;16.86;81.93;101116.34;5017503;28;20167;-67
2023/10/05 00:52:29;;;;;;;3.10;0.82;;;;;;;16.89;81.78;101110.16;5015223;28;20033;-67
2023/10/05 00:55:09;;;;;;;3.42;0.80;;;;;;;16.92;81.66;101103.94;5030285;28;20402;-67
2023/10/05 00:57:36;;;;;;;6.10;1.50;;;;;;;16.92;81.79;101094.97;5013774;28;20029;-67
2023/10/05 01:02:32;;;;;;;1.55;0.90;;;;;;;16.83;82.12;101094.59;5029227;28;20053;-67
2023/10/05 01:05:15;;;;;;;4.82;0.90;;;;;;;16.84;82.44;101088.00;5030276;28;20044;-67
2023/10/05 01:12:49;;;;;;;5.60;1.35;;;;;;;16.76;82.76;101080.97;5028680;28;20037;-66
2023/10/05 01:15:19;;;;;;;2.95;0.90;;;;;;;16.75;82.71;101077.47;5028145;28;20064;-66
2023/10/05 01:17:52;;;;;;;6.43;0.80;;;;;;;16.80;82.57;101079.03;5027757;28;20604;-66
2023/10/05 01:22:46;;;;;;;5.57;1.00;;;;;;;16.76;82.64;101076.28;5029205;28;20021;-65
2023/10/05 01:25:14;;;;;;;4.43;0.90;;;;;;;16.77;82.34;101077.88;5029156;28;20072;-66
2023/10/05 01:27:42;;;;;;;1.33;0.80;;;;;;;16.80;82.58;101073.59;5029434;28;20032;-66
2023/10/05 01:30:09;;;;;;;4.72;1.00;;;;;;;16.90;82.10;101075.53;5010554;28;20112;-66
2023/10/05 01:32:35;;;;;;;1.98;0.90;;;;;;;16.87;82.13;101081.78;5032219;28;20045;-67
2023/10/05 01:35:06;;;;;;;1.17;0.82;;;;;;;16.84;82.11;101079.84;5028412;28;20132;-67
2023/10/05 01:37:33;;;;;;;3.22;0.90;;;;;;;16.75;82.37;101076.69;5028447;28;20141;-67
2023/10/05 01:39:59;;;;;;;2.42;0.50;;;;;;;16.79;82.48;101074.75;5029626;28;20048;-66
2023/10/05 01:42:25;;;;;;;7.18;1.00;;;;;;;16.81;82.15;101062.31;5024151;28;20405;-67
2023/10/05 01:44:51;;;;;;;2.90;0.90;;;;;;;16.79;82.17;101070.09;5028572;28;20080;-67
2023/10/05 01:47:17;;;;;;;1.15;0.70;;;;;;;16.84;81.76;101075.16;5024687;28;20053;-67
2023/10/05 01:49:46;;;;;;;4.78;0.88;;;;;;;16.75;82.52;101074.75;5011706;28;20144;-66
2023/10/05 01:52:16;;;;;;;4.00;0.80;;;;;;;16.70;82.57;101075.13;5008547;28;20036;-66
2023/10/05 01:54:43;;;;;;;3.60;0.88;;;;;;;16.67;82.52;101064.22;5029179;28;20517;-66
2023/10/05 01:57:09;;;;;;;1.35;0.60;;;;;;;16.72;82.74;101080.19;5025790;28;20118;-66
2023/10/05 01:59:37;;;;;;;2.08;0.80;;;;;;;16.68;82.23;101068.53;5025255;28;20030;-66
2023/10/05 02:02:10;;;;;;;1.55;0.80;;;;;;;16.71;82.64;101076.69;5026353;28;20086;-66
2023/10/05 02:04:42;;;;;;;1.98;0.90;;;;;;;16.77;81.99;101068.91;5028226;28;20038;-66
2023/10/05 02:07:09;;;;;;;2.00;0.50;;;;;;;16.77;82.31;101063.47;5025963;28;20054;-66
2023/10/05 02:09:37;;;;;;;1.73;0.73;;;;;;;16.65;82.78;101055.69;5023375;28;20033;-67
2023/10/05 02:12:06;;;;;;;3.33;0.95;;;;;;;16.74;82.46;101064.25;5028536;28;20064;-66
2023/10/05 02:14:32;;;;;;;2.00;0.95;;;;;;;16.72;82.61;101053.78;5030364;28;20029;-66
2023/10/05 02:16:58;;;;;;;1.08;0.60;;;;;;;16.63;82.75;101047.13;5027498;28;20069;-66
2023/10/05 02:19:25;;;;;;;1.15;0.70;;;;;;;16.63;83.13;101045.19;5029352;28;20624;-67
2023/10/05 02:21:54;;;;;;;6.18;0.90;;;;;;;16.59;83.03;101044.41;5027268;28;20041;-66
2023/10/05 02:24:22;;;;;;;2.67;0.75;;;;;;;16.71;82.47;101037.81;5010467;28;20033;-67
2023/10/05 02:27:09;;;;;;;3.17;0.75;;;;;;;16.69;82.85;101034.72;5028639;28;20034;-66
2023/10/05 02:29:35;;;;;;;2.60;0.60;;;;;;;16.75;82.40;101033.16;5024577;28;20041;-66
2023/10/05 02:34:47;;;;;;;1.40;0.60;;;;;;;16.57;83.08;101024.97;5030221;28;20040;-66
2023/10/05 02:37:13;;;;;;;2.30;1.13;;;;;;;16.66;82.80;101021.88;5028753;28;20505;-66
2023/10/05 02:39:40;;;;;;;1.33;0.77;;;;;;;16.61;82.99;101027.69;5024676;28;20100;-67
2023/10/05 02:42:12;;;;;;;1.30;0.70;;;;;;;16.58;82.89;101025.75;5029190;28;20033;-67
2023/10/05 02:44:38;;;;;;;3.78;0.73;;;;;;;16.62;82.67;101012.94;5026984;28;20040;-67
2023/10/05 02:47:12;;;;;;;1.45;0.45;;;;;;;16.64;82.95;101027.72;5024072;28;20029;-66
2023/10/05 02:49:43;;;;;;;1.77;0.85;;;;;;;16.67;82.48;101032.38;5025803;28;20036;-67
2023/10/05 02:52:15;;;;;;;1.58;0.63;;;;;;;16.65;82.82;101025.75;5026117;28;20034;-67
2023/10/05 02:54:41;;;;;;;5.37;0.77;;;;;;;16.61;83.01;101024.97;5026111;28;20402;-67
2023/10/05 02:57:08;;;;;;;5.22;0.68;;;;;;;16.57;83.53;101013.34;5026537;28;20276;-67
2023/10/05 02:59:34;;;;;;;4.75;0.85;;;;;;;16.62;83.04;101018.38;5031011;28;20037;-66
2023/10/05 03:02:06;;;;;;;2.22;0.82;;;;;;;16.58;83.30;101017.59;5032529;28;20033;-67
2023/10/05 03:04:44;;;;;;;1.67;0.95;;;;;;;16.54;83.50;101012.16;5031191;28;20509;-66
2023/10/05 03:07:16;;;;;;;1.90;0.70;;;;;;;16.57;83.52;101010.63;5043463;28;20512;-65
2023/10/05 03:09:46;;;;;;;2.42;0.85;;;;;;;16.56;83.63;101012.56;5030915;28;20116;-65
2023/10/05 03:12:13;;;;;;;1.90;0.80;;;;;;;16.53;83.78;101007.13;5032472;28;20486;-66
2023/10/05 03:14:45;;;;;;;2.85;0.80;;;;;;;16.54;83.54;101001.28;5030567;28;20490;-66
2023/10/05 03:17:21;;;;;;;1.27;0.80;;;;;;;16.51;83.58;100991.16;5031720;28;20621;-65
2023/10/05 03:19:51;;;;;;;1.88;0.80;;;;;;;16.46;84.38;100998.91;5029123;28;20251;-66
2023/10/05 03:22:18;;;;;;;3.05;1.10;;;;;;;16.44;84.12;100999.28;5014866;28;20577;-66
2023/10/05 03:24:47;;;;;;;3.03;1.05;;;;;;;16.45;84.26;100989.19;5031069;28;20160;-66
2023/10/05 03:27:14;;;;;;;3.03;0.90;;;;;;;16.40;84.65;101001.22;5027911;28;20022;-66
2023/10/05 03:29:46;;;;;;;2.55;0.70;;;;;;;16.39;84.83;100998.88;5024953;28;20026;-66
2023/10/05 03:32:13;;;;;;;1.15;0.73;;;;;;;16.49;84.32;100985.34;5030080;28;20112;-67
2023/10/05 03:34:55;;;;;;;1.17;0.82;;;;;;;16.40;84.46;100995.78;5030918;28;20048;-66
2023/10/05 03:37:22;;;;;;;1.98;1.00;;;;;;;16.45;84.53;100992.69;5015295;28;20025;-66
2023/10/05 03:39:49;;;;;;;1.60;1.05;;;;;;;16.42;84.70;100976.34;5030414;28;20100;-66
2023/10/05 03:42:15;;;;;;;2.65;0.82;;;;;;;16.45;84.93;100984.53;5028045;28;20034;-66
2023/10/05 03:44:40;;;;;;;3.65;1.67;;;;;;;16.49;84.77;100992.72;5032178;28;20059;-67
2023/10/05 03:47:06;;;;;;;1.42;0.80;;;;;;;16.37;85.40;100988.41;5031421;28;20113;-67
2023/10/05 03:49:32;;;;;;;3.67;0.82;;;;;;;16.36;85.29;100992.28;5028689;28;20183;-66
2023/10/05 03:51:57;;;;;;;4.85;0.80;;;;;;;16.43;85.30;100988.81;5031846;28;20091;-66
2023/10/05 03:54:25;;;;;;;0.88;0.70;;;;;;;16.47;85.20;100990.38;5030851;28;20044;-66
2023/10/05 03:57:04;;;;;;;4.28;1.02;;;;;;;16.47;85.15;100986.88;5030936;28;20021;-67
2023/10/05 03:59:33;;;;;;;1.67;1.35;;;;;;;16.50;85.20;100984.19;5029274;28;20056;-66
2023/10/05 04:02:00;;;;;;;7.68;1.27;;;;;;;16.48;85.44;100985.69;5027847;28;20025;-66
2023/10/05 04:04:28;;;;;;;2.08;0.73;;;;;;;16.52;85.36;100978.34;5016639;28;20418;-67
2023/10/05 04:06:54;;;;;;;2.63;0.80;;;;;;;16.53;85.07;100980.69;5012110;28;20021;-66
2023/10/05 04:09:20;;;;;;;0.90;0.77;;;;;;;16.47;85.81;100984.16;5031411;28;20039;-66
2023/10/05 04:11:46;;;;;;;1.83;0.80;;;;;;;16.53;85.49;100971.75;5027897;28;20038;-67
2023/10/05 04:14:12;;;;;;;3.42;1.17;;;;;;;16.51;85.70;100974.09;5030175;28;20045;-67
2023/10/05 04:16:38;;;;;;;2.33;1.20;;;;;;;16.55;85.57;100980.31;5030001;28;20029;-66
2023/10/05 04:19:04;;;;;;;1.55;0.70;;;;;;;16.49;85.86;100981.84;5030713;28;20071;-66
2023/10/05 04:21:33;;;;;;;2.78;1.23;;;;;;;16.54;85.87;100987.69;5030157;28;20029;-66
2023/10/05 04:23:59;;;;;;;0.45;0.40;;;;;;;16.59;85.65;100989.25;5030917;28;20414;-66
2023/10/05 04:26:34;;;;;;;2.47;1.00;;;;;;;16.54;85.94;100986.91;5028621;28;20063;-67
2023/10/05 04:29:04;;;;;;;2.15;0.75;;;;;;;16.58;85.89;100990.41;5027959;28;20041;-67
2023/10/05 04:31:33;;;;;;;3.88;1.90;;;;;;;16.63;85.55;100992.72;5029077;28;20033;-67
2023/10/05 04:34:01;;;;;;;1.25;0.80;;;;;;;16.62;85.84;100996.63;5025034;28;20029;-67
2023/10/05 04:36:30;;;;;;;5.22;0.80;;;;;;;16.59;85.78;101003.59;5030017;28;20051;-67
2023/10/05 04:38:55;;;;;;;4.03;0.70;;;;;;;16.62;85.87;100996.63;5024520;28;20042;-67
2023/10/05 04:41:28;;;;;;;3.22;0.88;;;;;;;16.63;85.66;100993.50;5030972;28;20037;-67
2023/10/05 04:43:55;;;;;;;1.77;0.70;;;;;;;16.61;85.72;100995.84;5030244;28;20129;-67
2023/10/05 04:46:21;;;;;;;2.40;1.65;;;;;;;16.65;85.76;100990.41;5026501;28;20418;-67
2023/10/05 04:48:55;;;;;;;2.25;0.73;;;;;;;16.59;85.98;100989.25;5012442;28;20029;-66
2023/10/05 04:51:26;;;;;;;1.13;0.63;;;;;;;16.54;86.37;100986.91;5023930;28;20034;-67
2023/10/05 04:53:54;;;;;;;1.48;0.60;;;;;;;16.44;86.97;100982.19;5028696;28;20037;-67
2023/10/05 04:56:28;;;;;;;3.83;0.93;;;;;;;16.53;86.82;100977.19;5027113;28;20549;-66
2023/10/05 05:04:41;;;;;;;2.85;1.23;;;;;;;16.68;86.05;101001.31;5025264;28;20152;-66
2023/10/05 05:07:07;;;;;;;2.50;0.80;;;;;;;16.67;86.31;100985.34;5025437;28;20064;-66
2023/10/05 05:09:35;;;;;;;0.40;0.40;;;;;;;16.68;86.38;100995.88;5028891;28;20457;-66
2023/10/05 05:12:05;;;;;;;1.05;0.70;;;;;;;16.67;86.57;100996.22;5026953;28;20071;-66
2023/10/05 05:14:32;;;;;;;1.65;0.70;;;;;;;16.70;86.70;100985.38;5030367;28;20033;-67
2023/10/05 05:16:59;;;;;;;1.52;0.90;;;;;;;16.75;86.56;100990.41;5028457;28;20034;-66
2023/10/05 05:19:25;;;;;;;1.50;0.65;;;;;;;16.78;86.49;100991.59;5026834;28;20099;-66
2023/10/05 05:21:50;;;;;;;6.72;1.52;;;;;;;16.77;87.09;100990.81;5026218;28;20166;-67
2023/10/05 05:24:16;;;;;;;1.58;0.75;;;;;;;16.78;87.30;100991.59;5030692;28;20044;-67
2023/10/05 05:26:42;;;;;;;5.57;1.10;;;;;;;16.72;88.30;100988.50;5027857;28;20047;-67
2023/10/05 05:29:08;;;;;;;0.88;0.70;;;;;;;16.68;89.13;100971.38;5026412;28;20477;-67
2023/10/05 05:31:33;;;;;;;3.28;1.00;;;;;;;16.62;89.66;100977.59;5023690;28;20053;-67
2023/10/05 05:33:59;;;;;;;2.47;1.05;;;;;;;16.63;89.97;100976.41;5029189;28;20071;-67
2023/10/05 05:36:25;;;;;;;1.10;0.82;;;;;;;16.60;90.82;100974.47;5023538;28;20045;-67
2023/10/05 05:38:51;;;;;;;1.55;0.85;;;;;;;16.67;90.50;100974.47;5028429;28;20021;-66
2023/10/05 05:41:18;;;;;;;3.22;0.95;;;;;;;16.58;91.20;100968.66;5027424;28;20044;-67
2023/10/05 05:43:44;;;;;;;5.30;0.75;;;;;;;16.59;91.63;100968.25;5026344;28;20442;-67
2023/10/05 05:46:13;;;;;;;0.95;0.55;;;;;;;16.57;91.84;100965.16;5023181;28;20030;-67
2023/10/05 05:48:43;;;;;;;1.58;0.70;;;;;;;16.50;92.66;100967.88;5020183;28;20048;-67
2023/10/05 05:51:15;;;;;;;1.73;0.85;;;;;;;16.35;93.48;100974.41;5021961;28;20034;-65
2023/10/05 05:53:47;;;;;;;4.90;1.00;;;;;;;16.47;93.27;100967.84;5011189;28;20032;-66
2023/10/05 05:56:19;;;;;;;2.42;0.75;;;;;;;16.42;93.65;100977.16;5027771;28;20037;-67
2023/10/05 05:58:50;;;;;;;2.42;1.20;;;;;;;16.46;93.89;100979.84;5026628;28;20115;-66
2023/10/05 06:01:15;;;;;;;3.80;1.08;;;;;;;16.50;93.52;100980.69;5011471;28;20117;-68
2023/10/05 06:03:43;;;;;;;4.35;1.10;;;;;;;16.58;93.29;100984.97;5027421;28;20421;-67
2023/10/05 06:06:09;;;;;;;5.75;1.00;;;;;;;16.61;93.02;100981.47;5006384;28;20091;-67
2023/10/05 06:08:37;;;;;;;3.90;0.85;;;;;;;16.59;93.57;100994.69;5027574;28;20033;-68
2023/10/05 06:11:08;;;;;;;3.35;0.85;;;;;;;16.54;93.69;100984.97;5027995;28;20043;-67
2023/10/05 06:13:36;;;;;;;2.55;0.93;;;;;;;16.65;93.12;100995.84;5027305;28;20041;-67
2023/10/05 06:16:09;;;;;;;1.00;0.70;;;;;;;16.62;93.22;100991.97;5026805;28;20041;-67
2023/10/05 06:18:36;;;;;;;3.03;0.90;;;;;;;16.61;93.46;101001.28;5023423;28;20079;-67
2023/10/05 06:21:02;;;;;;;2.80;0.73;;;;;;;16.63;93.56;100995.44;5029035;28;20478;-67
2023/10/05 06:23:28;;;;;;;1.25;0.90;;;;;;;16.58;94.41;100995.84;5027425;28;20040;-67
2023/10/05 06:25:56;;;;;;;1.65;0.85;;;;;;;16.60;94.42;100998.97;5029074;28;20029;-68
2023/10/05 06:28:22;;;;;;;5.30;0.80;;;;;;;16.56;95.11;101001.69;5032446;28;20656;-67
2023/10/05 06:30:50;;;;;;;2.80;1.17;;;;;;;16.60;94.87;101012.56;5033231;28;20048;-67
2023/10/05 06:33:16;;;;;;;4.10;1.00;;;;;;;16.65;94.94;101007.50;5029027;28;20025;-67
2023/10/05 06:35:41;;;;;;;4.20;0.80;;;;;;;16.62;95.47;101007.50;5032981;28;20397;-67
2023/10/05 06:38:08;;;;;;;4.47;1.50;;;;;;;16.60;95.47;101018.00;5032308;28;20497;-67
2023/10/05 06:40:33;;;;;;;1.58;0.93;;;;;;;16.54;96.25;101022.25;5032451;28;20516;-67
2023/10/05 06:43:00;;;;;;;4.35;1.35;;;;;;;16.52;96.21;101025.38;5032655;28;20037;-67
2023/10/05 06:45:25;;;;;;;2.92;1.10;;;;;;;16.53;96.44;101026.91;5032688;28;20036;-67
2023/10/05 06:47:51;;;;;;;2.08;1.10;;;;;;;16.55;96.69;101030.00;5029203;28;20389;-68
2023/10/05 06:50:17;;;;;;;2.00;1.13;;;;;;;16.48;97.08;101023.75;5032071;28;20113;-68
2023/10/05 06:52:48;;;;;;;3.20;1.02;;;;;;;16.48;97.38;101031.91;5032225;28;20638;-67
2023/10/05 06:55:21;;;;;;;2.53;0.90;;;;;;;16.53;97.45;101032.34;5028912;28;20026;-68
2023/10/05 06:57:49;;;;;;;0.82;0.82;;;;;;;16.59;96.76;101041.69;5031989;28;20029;-68
2023/10/05 07:00:16;;;;;;;3.88;1.00;;;;;;;16.57;96.80;101048.69;5012490;28;20026;-67
2023/10/05 07:02:46;;;;;;;2.75;0.85;;;;;;;16.56;97.16;101050.63;5029687;28;20029;-67
2023/10/05 07:05:12;;;;;;;7.93;1.20;;;;;;;16.57;97.07;101057.59;5011322;28;20116;-68
2023/10/05 07:07:38;;;;;;;4.20;0.90;;;;;;;16.57;97.42;101054.88;5015556;28;20037;-68
2023/10/05 07:10:08;;;;;;;1.88;0.90;;;;;;;16.59;97.47;101073.56;5031885;28;20079;-68
2023/10/05 07:12:35;;;;;;;3.80;1.00;;;;;;;16.60;97.59;101065.00;5031531;28;20082;-68
2023/10/05 07:15:02;;;;;;;2.05;1.00;;;;;;;16.65;97.55;101080.16;5032200;28;20048;-68
2023/10/05 07:17:29;;;;;;;3.90;1.23;;;;;;;16.64;97.59;101086.78;5029161;28;20028;-67
2023/10/05 07:19:54;;;;;;;1.58;0.93;;;;;;;16.63;98.04;101091.44;5030829;28;20037;-67
2023/10/05 07:22:21;;;;;;;6.60;1.30;;;;;;;16.65;97.88;101093.75;5031301;28;20033;-67
2023/10/05 07:24:47;;;;;;;3.90;1.67;;;;;;;16.59;98.62;101101.50;5031377;28;20078;-67
2023/10/05 07:27:13;;;;;;;2.95;1.50;;;;;;;16.55;98.96;101114.31;5033092;28;20032;-66
2023/10/05 07:29:44;;;;;;;5.28;1.65;;;;;;;16.59;98.85;101106.94;5031441;28;20037;-67
2023/10/05 07:32:11;;;;;;;5.53;1.70;;;;;;;16.56;99.47;101112.38;5029804;28;20060;-66
2023/10/05 07:34:37;;;;;;;3.92;1.40;;;;;;;16.56;99.75;101109.66;5028068;28;20095;-66
2023/10/05 07:37:02;;;;;;;3.95;1.50;;;;;;;16.62;99.68;101121.72;5032220;28;20029;-67
2023/10/05 07:39:28;;;;;;;4.72;1.38;;;;;;;16.62;100.00;101132.63;5032764;28;20416;-66
2023/10/05 07:41:54;;;;;;;2.60;0.95;;;;;;;16.65;99.77;101137.28;5033057;28;20044;-67
2023/10/05 07:44:20;;;;;;;1.55;0.77;;;;;;;16.68;99.83;101133.81;5032965;28;20029;-67
2023/10/05 07:46:46;;;;;;;1.65;0.90;;;;;;;16.73;99.52;101136.13;5032312;28;20026;-66
2023/10/05 07:49:13;;;;;;;2.90;1.05;;;;;;;16.71;99.59;101143.91;5030994;28;20071;-65
2023/10/05 07:51:39;;;;;;;0.70;0.60;;;;;;;16.71;99.94;101152.06;5033074;28;20402;-67
2023/10/05 07:54:05;;;;;;;1.63;0.77;;;;;;;16.71;99.91;101158.28;5030908;28;20033;-66
2023/10/05 07:56:33;;;;;;;0.70;0.70;;;;;;;16.65;100.00;101159.03;5029020;28;20498;-66
2023/10/05 07:58:58;;;;;;;1.10;0.98;;;;;;;16.67;100.00;101162.16;5030955;28;20560;-67
2023/10/05 08:01:25;;;;;;;1.25;0.88;;;;;;;16.71;100.00;101179.25;5031923;28;20064;-66
2023/10/05 08:03:51;;;;;;;2.25;0.98;;;;;;;16.71;100.00;101176.53;5029417;28;20029;-67
2023/10/05 08:06:17;;;;;;;1.42;1.10;;;;;;;16.78;100.00;101168.44;5030955;28;20044;-66
2023/10/05 08:08:43;;;;;;;5.97;1.15;;;;;;;16.77;100.00;101166.84;5030598;28;20115;-67
2023/10/05 08:11:12;;;;;;;2.22;0.88;;;;;;;16.81;100.00;101165.72;5029759;28;20516;-67
2023/10/05 08:13:39;;;;;;;2.45;1.10;;;;;;;16.80;100.00;101177.75;5029639;28;20049;-67
2023/10/05 08:16:08;;;;;;;1.85;1.38;;;;;;;16.84;100.00;101183.97;5030298;28;20398;-67
2023/10/05 08:18:34;;;;;;;1.75;0.90;;;;;;;16.91;100.00;101185.94;5031317;28;20448;-66
2023/10/05 08:20:59;;;;;;;0.93;0.63;;;;;;;16.95;100.00;101194.91;5031561;28;20041;-68
2023/10/05 08:23:25;;;;;;;3.78;0.93;;;;;;;16.96;100.00;101189.06;5030574;28;20037;-68
2023/10/05 08:25:50;;;;;;;2.00;0.70;;;;;;;16.99;100.00;101187.53;5028951;28;20028;-68
2023/10/05 08:28:20;;;;;;;0.90;0.50;;;;;;;17.02;100.00;101178.59;5031130;28;20033;-67
2023/10/05 08:30:57;;;;;;;2.08;0.40;;;;;;;17.01;100.00;101185.22;5030556;28;20501;-68
2023/10/05 08:33:26;;;;;;;0.38;0.38;;;;;;;17.02;100.00;101187.53;5026346;28;20509;-67
2023/10/05 08:35:52;;;;;;;2.45;0.63;;;;;;;17.04;100.00;101182.50;5030973;28;20044;-67
2023/10/05 08:38:17;;;;;;;0.60;0.55;;;;;;;17.06;100.00;101190.25;5030254;28;20104;-67
2023/10/05 08:40:45;;;;;;;2.20;0.63;;;;;;;17.07;100.00;101191.84;5030483;28;20085;-67
2023/10/05 08:43:11;;;;;;;0.85;0.47;;;;;;;17.02;100.00;101198.44;5031844;28;20516;-68
2023/10/05 08:45:51;;;;;;;1.17;0.70;;;;;;;17.05;100.00;101210.50;5030731;28;20057;-67
2023/10/05 08:48:28;;;;;;;0.63;0.50;;;;;;;17.00;100.00;101221.75;5027491;28;20026;-67
2023/10/05 08:50:58;;;;;;;0.77;0.60;;;;;;;17.02;100.00;101227.56;5026014;28;20094;-67
2023/10/05 08:53:24;;;;;;;3.20;0.90;;;;;;;17.02;100.00;101230.31;5030510;28;20619;-68
2023/10/05 08:55:51;;;;;;;0.70;0.65;;;;;;;17.05;100.00;101227.59;5027631;28;20048;-68
2023/10/05 08:58:18;;;;;;;1.50;0.70;;;;;;;17.10;100.00;101223.72;5029690;28;20083;-68
2023/10/05 09:00:45;;;;;;;1.50;0.75;;;;;;;17.10;100.00;101219.06;5031589;28;20110;-68
2023/10/05 09:03:29;;;;;;;1.73;0.82;;;;;;;17.15;100.00;101210.50;5028483;28;20164;-67
2023/10/05 09:06:13;;;;;;;1.60;1.00;;;;;;;17.25;100.00;101225.31;5028758;28;20048;-68
2023/10/05 09:08:53;;;;;;;0.90;0.80;;;;;;;17.38;100.00;101231.19;5030142;28;20053;-68
2023/10/05 09:11:27;;;;;;;1.88;1.08;;;;;;;17.52;100.00;101239.38;5026418;28;20029;-67
2023/10/05 09:13:53;;;;;;;1.85;1.00;;;;;;;17.61;100.00;101247.97;5028595;28;20102;-67
2023/10/05 09:16:30;;;;;;;1.25;1.15;;;;;;;17.64;100.00;101250.72;5029672;28;20033;-67
2023/10/05 09:18:55;;;;;;;1.60;1.02;;;;;;;17.63;100.00;101241.00;5026924;28;20033;-67
2023/10/05 09:21:24;;;;;;;1.50;0.80;;;;;;;17.69;100.00;101250.31;5027097;28;20132;-67
2023/10/05 09:23:49;;;;;;;0.98;0.85;;;;;;;17.76;100.00;101258.50;5029032;28;20110;-67
2023/10/05 09:26:33;;;;;;;1.30;0.63;;;;;;;17.78;100.00;101261.63;5026012;28;20037;-67
2023/10/05 09:29:21;;;;;;;1.40;0.70;;;;;;;17.73;100.00;101266.69;5028999;28;20152;-67
2023/10/05 09:31:51;;;;;;;3.17;1.05;;;;;;;17.76;100.00;101265.91;5028271;28;20060;-67
2023/10/05 09:34:36;;;;;;;1.02;0.60;;;;;;;17.76;100.00;101266.69;5024095;28;20033;-67
2023/10/05 09:37:08;;;;;;;3.53;0.80;;;;;;;17.83;100.00;101268.63;5027294;28;20521;-66
2023/10/05 09:39:46;;;;;;;2.15;0.77;;;;;;;17.88;100.00;101269.03;5028197;28;20037;-66
2023/10/05 09:42:25;;;;;;;1.33;0.73;;;;;;;17.91;100.00;101283.81;5024469;28;20159;-66
2023/10/05 09:44:57;;;;;;;0.80;0.70;;;;;;;17.98;100.00;101281.88;5029164;28;20518;-67
2023/10/05 09:47:24;;;;;;;2.38;0.70;;;;;;;18.00;100.00;101282.25;5029432;28;20616;-67
2023/10/05 09:49:53;;;;;;;1.88;0.85;;;;;;;18.17;100.00;101288.09;5012893;28;20029;-67
2023/10/05 09:52:21;;;;;;;0.77;0.65;;;;;;;18.28;100.00;101292.38;5029825;28;20053;-66
2023/10/05 09:54:47;;;;;;;1.90;0.80;;;;;;;18.44;100.00;101295.53;5028831;28;20406;-67
2023/10/05 09:57:17;;;;;;;0.50;0.50;;;;;;;18.65;100.00;101284.56;5022882;28;20483;-66
2023/10/05 09:59:57;;;;;;;0.73;0.50;;;;;;;18.76;100.00;101301.69;5028389;28;20116;-67
2023/10/05 10:02:26;;;;;;;1.85;0.88;;;;;;;18.92;99.91;101298.50;5033812;28;20037;-67
2023/10/05 10:04:57;;;;;;;1.27;0.40;;;;;;;19.07;99.97;101304.69;5030244;28;20033;-67
2023/10/05 10:07:26;;;;;;;1.75;0.50;;;;;;;19.19;99.59;101301.53;5034844;28;20045;-67
2023/10/05 10:09:53;;;;;;;2.20;1.00;;;;;;;19.26;99.12;101309.72;5033652;28;20289;-67
2023/10/05 10:12:38;;;;;;;1.27;0.70;;;;;;;19.39;98.33;101314.34;5033943;28;20064;-67
2023/10/05 10:15:24;;;;;;;5.45;0.82;;;;;;;19.40;97.00;101313.16;5032115;28;20029;-67
2023/10/05 10:18:03;;;;;;;1.08;0.45;;;;;;;19.53;96.80;101308.78;5029739;28;20053;-67
2023/10/05 10:20:35;;;;;;;1.52;0.65;;;;;;;19.43;96.20;101320.59;5016066;28;20137;-67
2023/10/05 10:23:22;;;;;;;4.82;0.60;;;;;;;19.54;96.66;101307.63;5029986;28;20494;-67
2023/10/05 10:25:51;;;;;;;1.33;0.40;;;;;;;19.61;95.84;101307.56;5031328;28;20045;-67
2023/10/05 10:31:33;;;;;;;1.35;0.55;;;;;;;19.84;94.90;101317.22;5001537;28;20708;-67
2023/10/05 10:34:49;;;;;;;3.10;0.70;;;;;;;19.92;94.74;101316.00;5012024;28;20089;-68
2023/10/05 10:37:34;;;;;;;1.05;0.40;;;;;;;19.77;93.91;101307.09;4998886;28;20037;-67
2023/10/05 10:40:00;;;;;;;1.65;0.60;;;;;;;19.72;93.08;101318.47;5033161;28;20098;-67
2023/10/05 10:45:33;;;;;;;2.97;0.57;;;;;;;19.49;92.94;101326.41;5028300;28;20064;-68
2023/10/05 10:47:59;;;;;;;2.33;0.60;;;;;;;19.38;92.76;101322.94;5028846;28;20413;-68
2023/10/05 10:50:31;;;;;;;0.68;0.43;;;;;;;19.35;92.37;101332.72;5031798;28;20037;-68
2023/10/05 10:52:59;;;;;;;;;;;;;;;19.16;90.53;101335.88;5032805;28;20056;-66
2023/10/05 10:55:41;;;;;;;0.88;0.50;;;;;;;19.09;90.67;101335.91;5026986;28;19961;-67
2023/10/05 10:58:12;;;;;;;0.45;0.30;;;;;;;19.25;91.19;101338.97;5028809;28;20079;-68
2023/10/05 11:03:12;;;;;;;1.00;0.65;;;;;;;19.45;90.66;101348.25;5026891;28;20068;-67
2023/10/05 11:05:40;;;;;;;0.55;0.40;;;;;;;19.52;90.30;101342.78;5031811;28;20038;-67
2023/10/05 11:08:13;;;;;;;0.93;0.40;;;;;;;19.51;88.63;101345.91;5026703;28;20077;-67
2023/10/05 11:10:42;;;;;;;2.60;0.70;;;;;;;19.45;88.43;101337.31;5030177;28;20029;-68
2023/10/05 11:13:18;;;;;;;1.25;0.40;;;;;;;19.47;88.03;101345.91;5034076;28;20040;-67
2023/10/05 11:15:49;;;;;;;3.88;0.75;;;;;;;19.42;88.72;101343.59;5033138;28;20521;-67
2023/10/05 11:18:18;;;;;;;1.48;0.60;;;;;;;19.30;88.48;101345.97;5031779;28;20022;-67
2023/10/05 11:20:52;;;;;;;4.68;0.47;;;;;;;19.26;88.80;101343.25;5030414;28;20399;-67
2023/10/05 11:23:26;;;;;;;1.92;0.50;;;;;;;19.21;88.22;101348.34;5030111;28;20029;-67
2023/10/05 11:26:17;;;;;;;1.05;0.65;;;;;;;19.09;88.09;101343.31;5029464;28;20042;-67
2023/10/05 11:28:38;;;;;;;0.47;0.38;;;;;;;19.24;88.10;101350.28;5028774;28;20041;-67
2023/10/05 11:31:04;;;;;;;1.00;0.45;;;;;;;19.34;87.78;101350.28;5031929;28;20185;-66
2023/10/05 11:33:35;;;;;;;1.70;0.63;;;;;;;19.38;88.02;101336.59;5031900;28;20126;-67
2023/10/05 11:36:17;;;;;;;2.03;0.52;;;;;;;19.48;87.64;101347.47;5031389;28;20041;-67
2023/10/05 11:38:47;;;;;;;0.88;0.35;;;;;;;19.64;87.21;101341.53;5025672;28;20033;-67
2023/10/05 11:41:16;;;;;;;0.80;0.40;;;;;;;19.73;86.08;101348.13;5032365;28;20036;-67
2023/10/05 11:43:44;;;;;;;0.73;0.30;;;;;;;19.82;85.54;101350.44;5033274;28;20037;-68
2023/10/05 11:46:24;;;;;;;2.58;0.32;;;;;;;19.93;84.93;101351.13;5031373;28;20037;-66
2023/10/05 11:48:56;;;;;;;1.25;0.38;;;;;;;20.02;84.02;101347.94;5030006;28;20049;-67
2023/10/05 11:51:41;;;;;;;0.52;0.40;;;;;;;20.11;81.39;101351.00;5025626;28;20186;-67
2023/10/05 11:54:11;;;;;;;1.13;0.28;;;;;;;20.21;81.50;101348.19;5029882;28;20514;-67
2023/10/05 11:56:38;;;;;;;1.95;0.20;;;;;;;20.26;79.73;101344.28;5029377;28;20030;-67
2023/10/05 11:59:07;;;;;;;4.95;0.43;;;;;;;20.26;77.92;101344.28;5029465;28;20041;-67
2023/10/05 12:01:33;;;;;;;1.17;0.38;;;;;;;20.24;77.05;101349.38;5030815;28;20033;-68
2023/10/05 12:03:59;;;;;;;2.80;0.30;;;;;;;20.32;76.54;101356.34;5032120;28;20034;-67